createdAt,value
2018-07-11T00:00:06.835Z,56.78
2018-07-11T00:02:19.308Z,56.13
2018-07-11T00:04:31.852Z,55.89
2018-07-11T00:06:44.229Z,56.74
2018-07-11T00:08:56.643Z,56.20
2018-07-11T00:11:09.868Z,56.14
2018-07-11T00:13:22.271Z,57.20
2018-07-11T00:15:34.603Z,57.13
2018-07-11T00:17:47.000Z,57.40
2018-07-11T00:19:59.402Z,57.67
2018-07-11T00:22:12.047Z,57.13
2018-07-11T00:24:24.555Z,58.28
2018-07-11T00:26:36.953Z,57.49
2018-07-11T00:28:50.188Z,57.37
2018-07-11T00:31:02.794Z,57.74
2018-07-11T00:33:15.276Z,58.20
2018-07-11T00:35:27.778Z,58.42
2018-07-11T00:37:40.177Z,57.50
2018-07-11T00:39:52.658Z,57.47
2018-07-11T00:42:05.059Z,58.17
2018-07-11T00:44:17.459Z,58.56
2018-07-11T00:46:29.961Z,57.69
2018-07-11T00:48:42.387Z,58.51
2018-07-11T00:50:55.361Z,58.75
2018-07-11T00:53:07.798Z,57.85
2018-07-11T00:55:20.334Z,58.57
2018-07-11T00:57:34.387Z,58.84
2018-07-11T00:59:46.737Z,59.18
2018-07-11T01:02:03.355Z,59.07
2018-07-11T01:04:16.098Z,58.31
2018-07-11T01:06:28.556Z,58.01
2018-07-11T01:08:41.489Z,59.04
2018-07-11T01:10:54.305Z,58.95
2018-07-11T01:13:06.888Z,58.37
2018-07-11T01:15:19.298Z,58.88
2018-07-11T01:18:35.441Z,57.82
2018-07-11T01:20:47.863Z,57.92
2018-07-11T01:23:00.285Z,59.08
2018-07-11T01:25:12.655Z,58.31
2018-07-11T01:27:26.039Z,59.43
2018-07-11T01:29:38.433Z,59.62
2018-07-11T01:31:50.827Z,58.91
2018-07-11T01:34:03.291Z,59.56
2018-07-11T01:36:15.782Z,58.61
2018-07-11T01:38:28.194Z,58.64
2018-07-11T01:40:41.260Z,59.56
2018-07-11T01:42:53.895Z,58.60
2018-07-11T01:45:07.141Z,59.26
2018-07-11T01:47:19.911Z,59.33
2018-07-11T01:49:33.294Z,60.27
2018-07-11T01:51:57.593Z,58.59
2018-07-11T01:54:10.243Z,59.12
2018-07-11T01:56:22.627Z,58.80
2018-07-11T01:58:36.594Z,59.07
2018-07-11T02:00:49.063Z,58.74
2018-07-11T02:03:01.959Z,58.52
2018-07-11T02:05:14.667Z,58.59
2018-07-11T02:07:28.150Z,58.50
2018-07-11T02:09:40.818Z,59.51
2018-07-11T02:11:53.370Z,59.82
2018-07-11T02:14:06.514Z,59.70
2018-07-11T02:16:18.950Z,59.25
2018-07-11T02:18:31.414Z,60.71
2018-07-11T02:20:43.815Z,59.83
2018-07-11T02:22:56.206Z,60.16
2018-07-11T02:25:08.605Z,59.66
2018-07-11T02:27:21.002Z,61.28
2018-07-11T02:29:33.436Z,62.27
2018-07-11T02:31:45.858Z,63.24
2018-07-11T02:33:58.331Z,63.74
2018-07-11T02:36:10.708Z,64.57
2018-07-11T02:38:23.063Z,65.42
2018-07-11T02:40:35.618Z,66.83
2018-07-11T02:42:48.022Z,66.61
2018-07-11T02:45:00.576Z,68.51
2018-07-11T02:47:12.936Z,68.59
2018-07-11T02:49:25.373Z,67.95
2018-07-11T02:51:37.858Z,68.73
2018-07-11T02:53:50.251Z,69.30
2018-07-11T02:56:02.796Z,69.88
2018-07-11T02:58:15.119Z,71.04
2018-07-11T03:00:27.691Z,71.26
2018-07-11T03:02:40.168Z,71.66
2018-07-11T03:04:52.528Z,71.19
2018-07-11T03:07:05.559Z,71.44
2018-07-11T03:09:18.006Z,71.95
2018-07-11T03:11:30.363Z,71.54
2018-07-11T03:13:42.863Z,72.01
2018-07-11T03:15:55.290Z,70.71
2018-07-11T03:18:07.729Z,72.37
2018-07-11T03:20:20.196Z,71.86
2018-07-11T03:22:32.626Z,72.17
2018-07-11T03:24:45.045Z,72.66
2018-07-11T03:26:57.552Z,72.66
2018-07-11T03:29:09.935Z,72.84
2018-07-11T03:31:22.419Z,72.75
2018-07-11T03:33:34.955Z,73.41
2018-07-11T03:35:47.357Z,74.09
2018-07-11T03:38:00.020Z,73.16
2018-07-11T03:40:12.391Z,73.82
2018-07-11T03:42:24.827Z,73.69
2018-07-11T03:44:37.350Z,73.37
2018-07-11T03:46:49.746Z,73.21
2018-07-11T03:49:02.128Z,74.32
2018-07-11T03:51:15.031Z,74.30
2018-07-11T03:53:27.378Z,74.61
2018-07-11T03:55:39.694Z,73.44
2018-07-11T03:57:52.198Z,73.48
2018-07-11T04:00:04.615Z,74.62
2018-07-11T04:02:17.057Z,73.90
2018-07-11T04:04:29.406Z,74.45
2018-07-11T04:06:41.775Z,74.50
2018-07-11T04:08:54.128Z,73.58
2018-07-11T04:11:06.585Z,74.26
2018-07-11T04:13:19.231Z,73.41
2018-07-11T04:15:31.551Z,73.09
2018-07-11T04:17:43.913Z,73.17
2018-07-11T04:19:56.523Z,73.42
2018-07-11T04:22:08.857Z,72.94
2018-07-11T04:24:21.261Z,72.82
2018-07-11T04:26:33.771Z,72.96
2018-07-11T04:28:46.228Z,72.45
2018-07-11T04:30:58.680Z,73.83
2018-07-11T04:33:11.046Z,74.12
2018-07-11T04:35:23.514Z,74.21
2018-07-11T04:37:35.934Z,73.15
2018-07-11T04:39:49.451Z,72.69
2018-07-11T04:42:01.987Z,72.53
2018-07-11T04:44:14.462Z,73.56
2018-07-11T04:46:26.886Z,73.42
2018-07-11T04:48:40.718Z,73.13
2018-07-11T04:50:53.171Z,73.60
2018-07-11T04:53:07.331Z,73.71
2018-07-11T04:55:20.381Z,73.34
2018-07-11T04:57:32.918Z,73.13
2018-07-11T04:59:45.262Z,73.75
2018-07-11T05:01:57.666Z,73.13
2018-07-11T05:04:10.691Z,73.67
2018-07-11T05:06:23.119Z,73.47
2018-07-11T05:08:35.525Z,72.77
2018-07-11T05:10:48.041Z,72.45
2018-07-11T05:13:00.407Z,72.68
2018-07-11T05:15:12.837Z,73.01
2018-07-11T05:17:25.193Z,72.17
2018-07-11T05:19:37.555Z,72.33
2018-07-11T05:21:51.051Z,72.51
2018-07-11T05:24:03.441Z,72.11
2018-07-11T05:26:15.807Z,72.01
2018-07-11T05:28:28.514Z,72.41
2018-07-11T05:30:40.875Z,71.77
2018-07-11T05:32:53.338Z,72.36
2018-07-11T05:35:06.010Z,72.26
2018-07-11T05:37:19.715Z,71.95
2018-07-11T05:39:32.195Z,72.20
2018-07-11T05:41:44.570Z,72.42
2018-07-11T05:43:57.494Z,72.58
2018-07-11T05:46:10.496Z,72.14
2018-07-11T05:48:23.396Z,72.02
2018-07-11T05:50:36.403Z,71.75
2018-07-11T05:52:48.754Z,72.37
2018-07-11T05:55:01.241Z,73.18
2018-07-11T05:57:13.550Z,72.11
2018-07-11T05:59:26.244Z,72.28
2018-07-11T06:01:38.642Z,72.70
2018-07-11T06:03:51.042Z,72.08
2018-07-11T06:06:03.799Z,71.59
2018-07-11T06:08:16.148Z,71.03
2018-07-11T06:10:28.805Z,69.91
2018-07-11T06:12:41.194Z,70.87
2018-07-11T06:14:53.535Z,70.77
2018-07-11T06:17:06.090Z,70.64
2018-07-11T06:19:19.677Z,69.68
2018-07-11T06:21:32.087Z,69.49
2018-07-11T06:23:44.518Z,69.13
2018-07-11T06:25:57.667Z,68.21
2018-07-11T06:28:10.069Z,69.47
2018-07-11T06:30:22.443Z,66.96
2018-07-11T06:32:35.199Z,67.01
2018-07-11T06:34:47.762Z,67.33
2018-07-11T06:37:00.136Z,67.46
2018-07-11T06:39:12.561Z,66.69
2018-07-11T06:41:25.922Z,65.80
2018-07-11T06:43:38.879Z,65.49
2018-07-11T06:45:51.891Z,64.54
2018-07-11T06:48:04.297Z,64.31
2018-07-11T06:50:16.687Z,63.85
2018-07-11T06:52:30.075Z,64.21
2018-07-11T06:54:42.510Z,63.63
2018-07-11T06:56:55.081Z,63.23
2018-07-11T06:59:08.214Z,63.19
2018-07-11T07:01:20.618Z,62.27
2018-07-11T07:03:33.147Z,60.65
2018-07-11T07:05:46.103Z,59.95
2018-07-11T07:07:59.195Z,60.26
2018-07-11T07:10:11.589Z,59.16
2018-07-11T07:12:24.045Z,56.76
2018-07-11T07:14:36.640Z,55.83
2018-07-11T07:16:48.990Z,55.36
2018-07-11T07:19:01.750Z,55.49
2018-07-11T07:21:14.178Z,55.23
2018-07-11T07:23:28.422Z,56.15
2018-07-11T07:25:41.363Z,56.49
2018-07-11T07:27:55.403Z,55.88
2018-07-11T07:30:07.911Z,58.38
2018-07-11T07:32:20.458Z,57.75
2018-07-11T07:34:32.907Z,57.01
2018-07-11T07:36:45.466Z,56.90
2018-07-11T07:38:57.971Z,54.74
2018-07-11T07:41:11.511Z,55.00
2018-07-11T07:43:25.286Z,55.78
2018-07-11T07:45:38.115Z,54.71
2018-07-11T07:47:50.518Z,54.90
2018-07-11T07:50:02.975Z,56.84
2018-07-11T07:52:15.506Z,56.71
2018-07-11T07:54:28.485Z,55.59
2018-07-11T07:56:40.942Z,55.18
2018-07-11T07:58:53.455Z,54.85
2018-07-11T08:01:06.902Z,53.01
2018-07-11T08:03:19.908Z,54.71
2018-07-11T08:05:32.427Z,55.13
2018-07-11T08:07:44.803Z,54.50
2018-07-11T08:09:57.183Z,52.92
2018-07-11T08:12:09.666Z,52.86
2018-07-11T08:14:22.087Z,53.59
2018-07-11T08:16:34.494Z,53.82
2018-07-11T08:18:46.895Z,53.90
2018-07-11T08:20:59.290Z,54.12
2018-07-11T08:23:24.193Z,53.27
2018-07-11T08:25:48.079Z,53.14
2018-07-11T08:28:10.381Z,53.50
2018-07-11T08:31:10.036Z,52.35
2018-07-11T08:35:35.794Z,53.30
2018-07-11T08:37:59.627Z,53.44
2018-07-11T08:42:25.831Z,53.44
2018-07-11T08:44:49.750Z,54.35
2018-07-11T08:49:52.423Z,55.67
2018-07-11T08:52:18.182Z,55.42
2018-07-11T08:54:43.251Z,56.38
2018-07-11T08:57:38.342Z,55.63
2018-07-11T09:00:11.708Z,54.74
2018-07-11T09:02:35.554Z,55.36
2018-07-11T09:05:03.540Z,54.25
2018-07-11T09:07:41.018Z,53.46
2018-07-11T09:12:09.936Z,54.49
2018-07-11T09:14:33.779Z,55.26
2018-07-11T09:16:57.250Z,55.68
2018-07-11T09:19:22.595Z,55.36
2018-07-11T09:21:43.813Z,54.71
2018-07-11T09:25:00.408Z,54.67
2018-07-11T09:27:13.127Z,51.53
2018-07-11T09:29:25.618Z,50.13
2018-07-11T09:31:37.975Z,49.16
2018-07-11T09:33:50.362Z,50.50
2018-07-11T09:36:02.771Z,49.96
2018-07-11T09:38:15.243Z,50.99
2018-07-11T09:40:27.610Z,52.70
2018-07-11T09:42:40.180Z,50.49
2018-07-11T09:44:52.574Z,51.67
2018-07-11T09:47:10.628Z,51.84
2018-07-11T09:49:24.690Z,52.08
2018-07-11T09:51:37.329Z,52.92
2018-07-11T09:53:49.771Z,52.51
2018-07-11T09:56:02.683Z,49.23
2018-07-11T09:58:15.081Z,51.76
2018-07-11T10:00:33.248Z,49.38
2018-07-11T10:02:45.611Z,47.58
2018-07-11T10:04:58.095Z,47.29
2018-07-11T10:07:11.029Z,45.96
2018-07-11T10:09:23.501Z,46.32
2018-07-11T10:11:36.034Z,43.05
2018-07-11T10:13:48.815Z,44.63
2018-07-11T10:16:01.158Z,42.28
2018-07-11T10:18:13.494Z,44.07
2018-07-11T10:20:26.110Z,42.17
2018-07-11T10:22:38.853Z,43.35
2018-07-11T10:24:51.186Z,43.00
2018-07-11T10:27:03.594Z,42.02
2018-07-11T10:29:16.103Z,41.76
2018-07-11T10:31:29.086Z,42.18
2018-07-11T10:33:41.551Z,43.75
2018-07-11T10:35:54.006Z,44.90
2018-07-11T10:38:06.722Z,47.42
2018-07-11T10:40:19.130Z,46.01
2018-07-11T10:42:31.725Z,46.31
2018-07-11T10:44:44.206Z,46.55
2018-07-11T10:47:01.087Z,46.86
2018-07-11T10:49:13.465Z,46.32
2018-07-11T10:51:25.842Z,46.03
2018-07-11T10:53:38.277Z,46.61
2018-07-11T10:55:50.689Z,46.68
2018-07-11T10:58:04.028Z,45.84
2018-07-11T11:00:35.973Z,46.27
2018-07-11T11:02:34.619Z,46.34
2018-07-11T11:04:46.978Z,48.35
2018-07-11T11:06:59.362Z,46.88
2018-07-11T11:09:11.782Z,46.48
2018-07-11T11:11:24.142Z,47.58
2018-07-11T11:13:36.485Z,47.96
2018-07-11T11:15:49.619Z,47.38
2018-07-11T11:18:03.002Z,47.47
2018-07-11T11:20:15.613Z,48.31
2018-07-11T11:22:28.227Z,48.28
2018-07-11T11:24:40.709Z,47.37
2018-07-11T11:26:53.112Z,48.46
2018-07-11T11:29:05.549Z,48.12
2018-07-11T11:31:18.047Z,49.81
2018-07-11T11:33:30.509Z,48.54
2018-07-11T11:35:42.929Z,48.60
2018-07-11T11:37:55.278Z,49.07
2018-07-11T11:40:07.663Z,49.86
2018-07-11T11:42:20.660Z,49.83
2018-07-11T11:44:32.621Z,49.82
2018-07-11T11:46:45.079Z,49.90
2018-07-11T11:48:58.128Z,50.01
2018-07-11T11:51:10.584Z,49.67
2018-07-11T11:53:22.975Z,51.16
2018-07-11T11:55:35.369Z,49.65
2018-07-11T11:57:48.189Z,49.56
2018-07-11T12:00:00.567Z,49.48
2018-07-11T12:02:12.956Z,49.37
2018-07-11T12:04:25.329Z,49.11
2018-07-11T12:06:37.735Z,48.24
2018-07-11T12:08:50.800Z,50.00
2018-07-11T12:11:03.242Z,49.28
2018-07-11T12:13:15.682Z,48.05
2018-07-11T12:15:28.027Z,46.93
2018-07-11T12:17:40.423Z,46.13
2018-07-11T12:19:53.722Z,47.96
2018-07-11T12:22:06.570Z,46.37
2018-07-11T12:24:19.897Z,46.17
2018-07-11T12:26:32.353Z,46.24
2018-07-11T12:28:44.750Z,44.27
2018-07-11T12:30:57.126Z,43.54
2018-07-11T12:33:09.626Z,45.85
2018-07-11T12:35:22.061Z,43.25
2018-07-11T12:37:34.534Z,44.61
2018-07-11T12:39:47.306Z,44.06
2018-07-11T12:41:59.733Z,45.29
2018-07-11T12:44:12.209Z,46.12
2018-07-11T12:46:24.715Z,46.49
2018-07-11T12:48:42.759Z,47.67
2018-07-11T12:50:55.571Z,46.71
2018-07-11T12:53:08.043Z,46.51
2018-07-11T12:55:20.483Z,46.83
2018-07-11T12:57:32.949Z,46.80
2018-07-11T12:59:46.074Z,47.81
2018-07-11T13:01:59.106Z,48.02
2018-07-11T13:04:11.543Z,47.48
2018-07-11T13:06:25.498Z,47.73
2018-07-11T13:08:37.959Z,48.38
2018-07-11T13:10:50.927Z,48.05
2018-07-11T13:13:03.303Z,48.17
2018-07-11T13:15:15.791Z,48.88
2018-07-11T13:17:28.506Z,48.05
2018-07-11T13:19:40.892Z,48.13
2018-07-11T13:21:53.423Z,48.22
2018-07-11T13:24:05.810Z,49.06
2018-07-11T13:26:18.303Z,47.10
2018-07-11T13:28:30.683Z,46.44
2018-07-11T13:30:43.114Z,47.91
2018-07-11T13:32:55.591Z,46.42
2018-07-11T13:35:07.982Z,47.14
2018-07-11T13:37:20.579Z,47.43
2018-07-11T13:39:32.987Z,46.05
2018-07-11T13:41:46.352Z,45.65
2018-07-11T13:43:58.766Z,43.93
2018-07-11T13:46:11.257Z,44.95
2018-07-11T13:48:23.653Z,44.84
2018-07-11T13:50:36.098Z,44.04
2018-07-11T13:52:48.812Z,44.63
2018-07-11T13:55:01.417Z,43.55
2018-07-11T13:57:13.874Z,43.06
2018-07-11T13:59:26.312Z,43.87
2018-07-11T14:01:38.696Z,42.74
2018-07-11T14:03:51.502Z,44.50
2018-07-11T14:06:04.758Z,43.89
2018-07-11T14:08:17.237Z,44.45
2018-07-11T14:10:29.701Z,43.13
2018-07-11T14:12:42.420Z,43.99
2018-07-11T14:14:54.866Z,44.45
2018-07-11T14:17:07.287Z,42.92
2018-07-11T14:19:19.834Z,43.56
2018-07-11T14:21:32.265Z,42.17
2018-07-11T14:23:44.796Z,43.27
2018-07-11T14:25:57.343Z,42.92
2018-07-11T14:28:09.918Z,43.76
2018-07-11T14:30:23.492Z,44.24
2018-07-11T14:32:36.454Z,44.33
2018-07-11T14:34:48.907Z,43.03
2018-07-11T14:37:01.458Z,42.02
2018-07-11T14:39:13.864Z,41.72
2018-07-11T14:41:26.285Z,42.20
2018-07-11T14:43:38.686Z,41.51
2018-07-11T14:45:52.163Z,41.57
2018-07-11T14:48:09.470Z,40.84
2018-07-11T14:50:21.928Z,41.25
2018-07-11T14:52:34.502Z,41.27
2018-07-11T14:54:47.089Z,41.55
2018-07-11T14:56:59.506Z,41.42
2018-07-11T14:59:12.048Z,40.47
2018-07-11T15:01:24.670Z,41.36
2018-07-11T15:03:37.171Z,39.99
2018-07-11T15:05:49.554Z,40.32
2018-07-11T15:08:01.990Z,40.73
2018-07-11T15:10:14.340Z,41.29
2018-07-11T15:12:26.719Z,41.40
2018-07-11T15:14:39.250Z,40.97
2018-07-11T15:16:51.769Z,41.77
2018-07-11T15:19:04.154Z,40.58
2018-07-11T15:21:16.649Z,40.61
2018-07-11T15:23:29.108Z,40.65
2018-07-11T15:25:41.530Z,40.50
2018-07-11T15:27:54.129Z,40.76
2018-07-11T15:30:06.788Z,41.95
2018-07-11T15:32:19.402Z,42.72
2018-07-11T15:34:31.914Z,43.58
2018-07-11T15:36:44.358Z,42.46
2018-07-11T15:38:56.828Z,40.85
2018-07-11T15:41:09.218Z,42.31
2018-07-11T15:43:22.359Z,42.45
2018-07-11T15:45:34.786Z,42.23
2018-07-11T15:47:47.365Z,43.13
2018-07-11T15:50:00.634Z,42.68
2018-07-11T15:52:13.561Z,41.97
2018-07-11T15:54:26.004Z,42.06
2018-07-11T15:56:38.464Z,41.86
2018-07-11T15:58:59.673Z,43.12
2018-07-11T16:01:12.131Z,42.67
2018-07-11T16:03:26.116Z,43.38
2018-07-11T16:05:39.847Z,43.98
2018-07-11T16:07:53.426Z,42.83
2018-07-11T16:10:05.861Z,42.47
2018-07-11T16:12:18.310Z,43.00
2018-07-11T16:14:30.700Z,44.13
2018-07-11T16:16:43.107Z,42.70
2018-07-11T16:18:55.589Z,41.87
2018-07-11T16:21:08.036Z,42.58
2018-07-11T16:23:21.322Z,42.25
2018-07-11T16:25:33.706Z,42.11
2018-07-11T16:27:46.062Z,42.07
2018-07-11T16:29:58.502Z,42.35
2018-07-11T16:32:10.946Z,42.64
2018-07-11T16:34:23.349Z,41.40
2018-07-11T16:36:35.775Z,42.61
2018-07-11T16:38:48.205Z,42.50
2018-07-11T16:41:00.614Z,43.65
2018-07-11T16:43:14.273Z,42.81
2018-07-11T16:45:27.262Z,42.54
2018-07-11T16:47:39.919Z,43.64
2018-07-11T16:49:52.349Z,43.95
2018-07-11T16:52:05.370Z,43.04
2018-07-11T16:54:18.336Z,44.29
2018-07-11T16:56:30.923Z,44.31
2018-07-11T16:58:50.438Z,43.53
2018-07-11T17:01:02.962Z,44.45
2018-07-11T17:03:15.422Z,44.79
2018-07-11T17:05:32.316Z,43.92
2018-07-11T17:07:47.958Z,44.28
2018-07-11T17:10:03.587Z,44.45
2018-07-11T17:12:16.973Z,45.85
2018-07-11T17:14:30.062Z,46.11
2018-07-11T17:16:44.332Z,47.83
2018-07-11T17:19:01.477Z,44.90
2018-07-11T17:21:21.423Z,45.12
2018-07-11T17:23:34.527Z,45.99
2018-07-11T17:25:46.984Z,46.96
2018-07-11T17:28:02.649Z,46.78
2018-07-11T17:30:15.840Z,44.57
2018-07-11T17:32:29.382Z,45.40
2018-07-11T17:34:42.003Z,45.87
2018-07-11T17:36:58.721Z,45.37
2018-07-11T17:39:12.131Z,46.03
2018-07-11T17:41:24.682Z,44.92
2018-07-11T17:43:38.364Z,44.85
2018-07-11T17:45:51.458Z,44.37
2018-07-11T17:48:18.979Z,44.94
2018-07-11T17:50:31.366Z,44.26
2018-07-11T17:52:57.414Z,44.72
2018-07-11T17:55:13.095Z,44.10
2018-07-11T17:57:30.185Z,42.82
2018-07-11T17:59:46.810Z,44.32
2018-07-11T18:01:59.409Z,44.06
2018-07-11T18:04:21.309Z,44.75
2018-07-11T18:06:36.448Z,44.56
2018-07-11T18:08:57.737Z,46.48
2018-07-11T18:11:11.318Z,46.25
2018-07-11T18:13:36.693Z,45.57
2018-07-11T18:16:14.565Z,46.45
2018-07-11T18:19:37.688Z,45.98
2018-07-11T18:22:01.430Z,46.09
2018-07-11T18:24:28.358Z,45.63
2018-07-11T18:26:51.502Z,46.84
2018-07-11T18:29:21.033Z,45.58
2018-07-11T18:31:42.662Z,46.08
2018-07-11T18:36:12.984Z,46.59
2018-07-11T18:38:36.327Z,46.30
2018-07-11T18:40:56.466Z,46.55
2018-07-11T18:43:30.935Z,46.37
2018-07-11T18:45:55.403Z,46.54
2018-07-11T18:50:20.748Z,47.84
2018-07-11T18:52:40.578Z,47.21
2018-07-11T18:56:13.538Z,46.79
2018-07-11T18:59:10.595Z,48.06
2018-07-11T19:01:31.710Z,47.69
2018-07-11T19:04:20.822Z,48.57
2018-07-11T19:08:48.521Z,48.83
2018-07-11T19:11:16.614Z,48.58
2018-07-11T19:13:32.882Z,49.63
2018-07-11T19:15:46.134Z,48.60
2018-07-11T19:18:10.086Z,48.99
2018-07-11T19:20:34.562Z,48.53
2018-07-11T19:22:55.839Z,48.41
2018-07-11T19:25:16.938Z,48.27
2018-07-11T19:29:40.074Z,49.09
2018-07-11T19:34:10.679Z,48.51
2018-07-11T19:36:42.019Z,48.22
2018-07-11T19:39:01.061Z,48.73
2018-07-11T19:41:17.553Z,48.73
2018-07-11T19:43:42.931Z,48.75
2018-07-11T19:46:18.482Z,49.70
2018-07-11T19:49:50.178Z,49.59
2018-07-11T19:53:13.749Z,50.07
2018-07-11T19:55:38.635Z,49.05
2018-07-11T19:57:51.118Z,49.35
2018-07-11T20:00:03.730Z,49.66
2018-07-11T20:02:16.141Z,48.84
2018-07-11T20:04:28.680Z,49.88
2018-07-11T20:06:41.329Z,51.70
2018-07-11T20:08:53.765Z,53.06
2018-07-11T20:11:06.345Z,53.27
2018-07-11T20:13:25.540Z,53.76
2018-07-11T20:15:37.974Z,53.82
2018-07-11T20:17:50.416Z,53.83
2018-07-11T20:20:02.934Z,53.91
2018-07-11T20:22:15.330Z,54.18
2018-07-11T20:24:27.855Z,54.30
2018-07-11T20:26:40.226Z,55.23
2018-07-11T20:28:52.638Z,54.80
2018-07-11T20:31:05.131Z,55.30
2018-07-11T20:33:17.568Z,55.47
2018-07-11T20:35:29.938Z,54.59
2018-07-11T20:37:42.343Z,55.10
2018-07-11T20:39:54.878Z,55.85
2018-07-11T20:42:07.343Z,55.80
2018-07-11T20:44:20.110Z,56.79
2018-07-11T20:46:33.335Z,56.99
2018-07-11T20:48:45.789Z,57.27
2018-07-11T20:50:58.226Z,56.61
2018-07-11T20:53:10.613Z,56.92
2018-07-11T20:55:23.094Z,56.87
2018-07-11T20:57:35.540Z,56.29
2018-07-11T20:59:59.288Z,57.03
2018-07-11T21:02:22.904Z,56.61
2018-07-11T21:05:19.757Z,56.88
2018-07-11T21:07:41.385Z,57.21
2018-07-11T21:10:06.354Z,56.79
2018-07-11T21:12:45.082Z,56.55
2018-07-11T21:15:24.127Z,56.40
2018-07-11T21:17:58.934Z,56.48
2018-07-11T21:20:11.375Z,56.22
2018-07-11T21:22:23.784Z,55.95
2018-07-11T21:24:36.173Z,56.68
2018-07-11T21:26:48.559Z,56.84
2018-07-11T21:29:00.942Z,56.08
2018-07-11T21:31:13.453Z,57.03
2018-07-11T21:33:25.874Z,56.72
2018-07-11T21:35:38.270Z,56.71
2018-07-11T21:37:50.843Z,57.19
2018-07-11T21:40:03.394Z,56.75
2018-07-11T21:42:15.759Z,57.41
2018-07-11T21:44:28.178Z,57.39
2018-07-11T21:46:40.617Z,57.46
2018-07-11T21:48:52.990Z,57.55
2018-07-11T21:51:05.383Z,58.15
2018-07-11T21:53:17.718Z,57.36
2018-07-11T21:55:30.189Z,58.13
2018-07-11T21:57:43.291Z,58.00
2018-07-11T21:59:55.805Z,58.04
2018-07-11T22:02:08.398Z,56.83
2018-07-11T22:04:20.703Z,58.56
2018-07-11T22:06:33.074Z,58.06
2018-07-11T22:08:45.430Z,58.60
2018-07-11T22:10:57.964Z,57.55
2018-07-11T22:13:10.315Z,58.34
2018-07-11T22:15:22.681Z,57.73
2018-07-11T22:17:46.445Z,58.17
2018-07-11T22:19:57.645Z,58.73
2018-07-11T22:22:08.909Z,57.82
2018-07-11T22:24:20.164Z,58.52
2018-07-11T22:26:31.457Z,58.85
2018-07-11T22:28:42.727Z,58.37
2018-07-11T22:30:53.970Z,58.30
2018-07-11T22:33:05.223Z,58.11
2018-07-11T22:35:16.458Z,58.19
2018-07-11T22:37:27.781Z,59.14
2018-07-11T22:39:39.031Z,59.09
2018-07-11T22:41:50.269Z,59.23
2018-07-11T22:44:02.561Z,59.29
2018-07-11T22:46:13.755Z,58.97
2018-07-11T22:48:24.967Z,58.50
2018-07-11T22:50:36.198Z,59.10
2018-07-11T22:52:47.456Z,58.67
2018-07-11T22:54:58.717Z,59.23
2018-07-11T22:57:09.955Z,59.47
2018-07-11T22:59:21.197Z,58.82
2018-07-11T23:01:32.443Z,59.37
2018-07-11T23:03:43.757Z,60.14
2018-07-11T23:05:54.999Z,60.01
2018-07-11T23:08:06.230Z,59.60
2018-07-11T23:10:17.493Z,60.13
2018-07-11T23:12:28.821Z,59.37
2018-07-11T23:14:40.107Z,59.28
2018-07-11T23:16:51.321Z,59.57
2018-07-11T23:19:02.520Z,58.46
2018-07-11T23:21:13.762Z,58.51
2018-07-11T23:23:24.971Z,58.60
2018-07-11T23:25:36.210Z,57.81
2018-07-11T23:27:47.525Z,57.99
2018-07-11T23:29:58.762Z,57.81
2018-07-11T23:32:09.987Z,57.32
2018-07-11T23:34:21.280Z,56.63
2018-07-11T23:36:32.644Z,57.20
2018-07-11T23:38:43.930Z,56.65
2018-07-11T23:40:55.130Z,57.33
2018-07-11T23:43:06.374Z,57.79
2018-07-11T23:45:18.241Z,57.95
2018-07-11T23:47:29.469Z,58.40
2018-07-11T23:49:40.709Z,58.47
2018-07-11T23:51:51.953Z,57.47
2018-07-11T23:54:03.249Z,58.33
2018-07-11T23:56:14.628Z,57.62
2018-07-11T23:58:25.853Z,57.31
